sensor_id;sensor_type;location;lat;lon;timestamp;P1;durP1;ratioP1;P2;durP2;ratioP2
56667;SDS011;42542;48.360;10.958;2024-03-17T00:01:02;7.70;;;2.25;;
56667;SDS011;42542;48.360;10.958;2024-03-17T00:04:03;6.57;;;2.17;;
56667;SDS011;42542;48.360;10.958;2024-03-17T00:07:04;6.22;;;2.38;;
56667;SDS011;42542;48.360;10.958;2024-03-17T00:10:05;8.60;;;2.53;;
56667;SDS011;42542;48.360;10.958;2024-03-17T00:13:11;6.53;;;2.30;;
56667;SDS011;42542;48.360;10.958;2024-03-17T00:16:13;12.55;;;2.28;;
56667;SDS011;42542;48.360;10.958;2024-03-17T00:19:14;7.15;;;2.20;;
56667;SDS011;42542;48.360;10.958;2024-03-17T00:22:17;6.07;;;2.10;;
56667;SDS011;42542;48.360;10.958;2024-03-17T00:25:18;7.22;;;2.40;;
56667;SDS011;42542;48.360;10.958;2024-03-17T00:28:19;7.90;;;2.33;;
56667;SDS011;42542;48.360;10.958;2024-03-17T00:31:21;8.20;;;2.50;;
56667;SDS011;42542;48.360;10.958;2024-03-17T00:34:24;8.10;;;2.70;;
56667;SDS011;42542;48.360;10.958;2024-03-17T00:37:25;7.32;;;2.38;;
56667;SDS011;42542;48.360;10.958;2024-03-17T00:40:26;6.53;;;2.30;;
56667;SDS011;42542;48.360;10.958;2024-03-17T00:43:26;7.47;;;2.40;;
56667;SDS011;42542;48.360;10.958;2024-03-17T00:46:27;8.82;;;2.70;;
56667;SDS011;42542;48.360;10.958;2024-03-17T00:49:28;7.07;;;2.15;;
56667;SDS011;42542;48.360;10.958;2024-03-17T00:52:29;7.63;;;2.30;;
56667;SDS011;42542;48.360;10.958;2024-03-17T00:55:29;8.33;;;2.63;;
56667;SDS011;42542;48.360;10.958;2024-03-17T00:58:30;6.78;;;2.42;;
56667;SDS011;42542;48.360;10.958;2024-03-17T01:01:31;6.38;;;2.38;;
56667;SDS011;42542;48.360;10.958;2024-03-17T01:04:32;8.07;;;2.50;;
56667;SDS011;42542;48.360;10.958;2024-03-17T01:07:34;7.25;;;2.50;;
56667;SDS011;42542;48.360;10.958;2024-03-17T01:10:42;5.85;;;2.10;;
56667;SDS011;42542;48.360;10.958;2024-03-17T01:13:45;6.70;;;2.40;;
56667;SDS011;42542;48.360;10.958;2024-03-17T01:16:46;8.90;;;2.60;;
56667;SDS011;42542;48.360;10.958;2024-03-17T01:19:47;8.18;;;2.65;;
56667;SDS011;42542;48.360;10.958;2024-03-17T01:22:48;9.23;;;2.80;;
56667;SDS011;42542;48.360;10.958;2024-03-17T01:25:48;8.77;;;2.50;;
56667;SDS011;42542;48.360;10.958;2024-03-17T01:28:49;7.53;;;2.42;;
56667;SDS011;42542;48.360;10.958;2024-03-17T01:31:50;7.50;;;2.70;;
56667;SDS011;42542;48.360;10.958;2024-03-17T01:34:52;9.27;;;2.83;;
56667;SDS011;42542;48.360;10.958;2024-03-17T01:37:52;7.18;;;2.70;;
56667;SDS011;42542;48.360;10.958;2024-03-17T01:40:53;8.10;;;2.65;;
56667;SDS011;42542;48.360;10.958;2024-03-17T01:43:54;9.43;;;2.92;;
56667;SDS011;42542;48.360;10.958;2024-03-17T01:46:55;7.67;;;2.87;;
56667;SDS011;42542;48.360;10.958;2024-03-17T01:49:57;8.77;;;2.85;;
56667;SDS011;42542;48.360;10.958;2024-03-17T01:52:58;8.95;;;2.90;;
56667;SDS011;42542;48.360;10.958;2024-03-17T01:56:02;7.40;;;2.67;;
56667;SDS011;42542;48.360;10.958;2024-03-17T01:59:04;7.88;;;2.60;;
56667;SDS011;42542;48.360;10.958;2024-03-17T02:02:06;7.50;;;2.55;;
56667;SDS011;42542;48.360;10.958;2024-03-17T02:05:07;7.95;;;2.50;;
56667;SDS011;42542;48.360;10.958;2024-03-17T02:08:09;7.95;;;2.55;;
56667;SDS011;42542;48.360;10.958;2024-03-17T02:11:14;7.07;;;2.40;;
56667;SDS011;42542;48.360;10.958;2024-03-17T02:14:25;7.38;;;2.60;;
56667;SDS011;42542;48.360;10.958;2024-03-17T02:17:25;8.57;;;2.60;;
56667;SDS011;42542;48.360;10.958;2024-03-17T02:20:28;6.93;;;2.53;;
56667;SDS011;42542;48.360;10.958;2024-03-17T02:23:48;8.95;;;3.30;;
56667;SDS011;42542;48.360;10.958;2024-03-17T02:26:49;9.70;;;3.33;;
56667;SDS011;42542;48.360;10.958;2024-03-17T02:29:50;10.18;;;3.25;;
56667;SDS011;42542;48.360;10.958;2024-03-17T02:32:54;8.20;;;3.00;;
56667;SDS011;42542;48.360;10.958;2024-03-17T02:35:56;8.18;;;2.97;;
56667;SDS011;42542;48.360;10.958;2024-03-17T02:38:57;7.65;;;2.83;;
56667;SDS011;42542;48.360;10.958;2024-03-17T02:42:17;8.33;;;2.80;;
56667;SDS011;42542;48.360;10.958;2024-03-17T02:45:19;8.07;;;2.63;;
56667;SDS011;42542;48.360;10.958;2024-03-17T02:48:21;7.78;;;2.78;;
56667;SDS011;42542;48.360;10.958;2024-03-17T02:51:22;7.50;;;2.67;;
56667;SDS011;42542;48.360;10.958;2024-03-17T02:54:25;7.88;;;2.53;;
56667;SDS011;42542;48.360;10.958;2024-03-17T02:57:25;9.98;;;2.80;;
56667;SDS011;42542;48.360;10.958;2024-03-17T03:00:29;9.63;;;2.40;;
56667;SDS011;42542;48.360;10.958;2024-03-17T03:03:33;6.93;;;2.40;;
56667;SDS011;42542;48.360;10.958;2024-03-17T03:06:34;8.35;;;2.58;;
56667;SDS011;42542;48.360;10.958;2024-03-17T03:09:35;8.43;;;2.23;;
56667;SDS011;42542;48.360;10.958;2024-03-17T03:12:37;6.80;;;2.22;;
56667;SDS011;42542;48.360;10.958;2024-03-17T03:15:37;7.03;;;2.33;;
56667;SDS011;42542;48.360;10.958;2024-03-17T03:18:39;9.63;;;2.63;;
56667;SDS011;42542;48.360;10.958;2024-03-17T03:21:40;7.47;;;2.53;;
56667;SDS011;42542;48.360;10.958;2024-03-17T03:24:42;7.93;;;2.80;;
56667;SDS011;42542;48.360;10.958;2024-03-17T03:27:42;6.55;;;2.50;;
56667;SDS011;42542;48.360;10.958;2024-03-17T03:30:44;7.65;;;2.35;;
56667;SDS011;42542;48.360;10.958;2024-03-17T03:33:45;7.68;;;2.80;;
56667;SDS011;42542;48.360;10.958;2024-03-17T03:36:46;9.00;;;3.00;;
56667;SDS011;42542;48.360;10.958;2024-03-17T03:39:46;8.40;;;2.80;;
56667;SDS011;42542;48.360;10.958;2024-03-17T03:42:48;8.38;;;3.10;;
56667;SDS011;42542;48.360;10.958;2024-03-17T03:45:48;8.95;;;3.17;;
56667;SDS011;42542;48.360;10.958;2024-03-17T03:48:49;8.68;;;3.30;;
56667;SDS011;42542;48.360;10.958;2024-03-17T03:51:50;9.63;;;3.50;;
56667;SDS011;42542;48.360;10.958;2024-03-17T03:54:51;9.50;;;3.57;;
56667;SDS011;42542;48.360;10.958;2024-03-17T03:57:52;7.82;;;2.90;;
56667;SDS011;42542;48.360;10.958;2024-03-17T04:00:54;10.83;;;2.90;;
56667;SDS011;42542;48.360;10.958;2024-03-17T04:03:56;9.40;;;3.17;;
56667;SDS011;42542;48.360;10.958;2024-03-17T04:06:58;9.00;;;3.00;;
56667;SDS011;42542;48.360;10.958;2024-03-17T04:09:58;8.95;;;3.15;;
56667;SDS011;42542;48.360;10.958;2024-03-17T04:13:00;10.98;;;3.17;;
56667;SDS011;42542;48.360;10.958;2024-03-17T04:16:05;8.63;;;3.33;;
56667;SDS011;42542;48.360;10.958;2024-03-17T04:19:07;8.65;;;3.20;;
56667;SDS011;42542;48.360;10.958;2024-03-17T04:22:09;9.10;;;3.67;;
56667;SDS011;42542;48.360;10.958;2024-03-17T04:25:10;9.75;;;3.08;;
56667;SDS011;42542;48.360;10.958;2024-03-17T04:28:14;9.20;;;2.73;;
56667;SDS011;42542;48.360;10.958;2024-03-17T04:31:15;9.25;;;3.10;;
56667;SDS011;42542;48.360;10.958;2024-03-17T04:34:16;7.10;;;2.75;;
56667;SDS011;42542;48.360;10.958;2024-03-17T04:37:18;8.73;;;3.22;;
56667;SDS011;42542;48.360;10.958;2024-03-17T04:40:19;8.60;;;2.90;;
56667;SDS011;42542;48.360;10.958;2024-03-17T04:43:19;8.90;;;3.25;;
56667;SDS011;42542;48.360;10.958;2024-03-17T04:46:21;7.97;;;2.90;;
56667;SDS011;42542;48.360;10.958;2024-03-17T04:49:23;9.48;;;3.47;;
56667;SDS011;42542;48.360;10.958;2024-03-17T04:52:23;8.18;;;2.78;;
56667;SDS011;42542;48.360;10.958;2024-03-17T04:55:24;7.73;;;3.30;;
56667;SDS011;42542;48.360;10.958;2024-03-17T04:58:25;12.23;;;3.10;;
56667;SDS011;42542;48.360;10.958;2024-03-17T05:01:26;8.73;;;2.90;;
56667;SDS011;42542;48.360;10.958;2024-03-17T05:04:27;7.97;;;3.00;;
56667;SDS011;42542;48.360;10.958;2024-03-17T05:07:28;8.32;;;3.13;;
56667;SDS011;42542;48.360;10.958;2024-03-17T05:10:29;8.40;;;3.30;;
56667;SDS011;42542;48.360;10.958;2024-03-17T05:13:30;8.90;;;3.00;;
56667;SDS011;42542;48.360;10.958;2024-03-17T05:16:31;9.07;;;3.40;;
56667;SDS011;42542;48.360;10.958;2024-03-17T05:19:33;8.13;;;2.92;;
56667;SDS011;42542;48.360;10.958;2024-03-17T05:22:34;8.33;;;3.17;;
56667;SDS011;42542;48.360;10.958;2024-03-17T05:25:35;9.38;;;2.90;;
56667;SDS011;42542;48.360;10.958;2024-03-17T05:28:37;8.15;;;3.08;;
56667;SDS011;42542;48.360;10.958;2024-03-17T05:31:39;10.00;;;3.08;;
56667;SDS011;42542;48.360;10.958;2024-03-17T05:34:39;8.88;;;3.08;;
56667;SDS011;42542;48.360;10.958;2024-03-17T05:37:41;8.32;;;3.30;;
56667;SDS011;42542;48.360;10.958;2024-03-17T05:40:42;15.53;;;3.13;;
56667;SDS011;42542;48.360;10.958;2024-03-17T05:43:44;9.55;;;3.53;;
56667;SDS011;42542;48.360;10.958;2024-03-17T05:46:44;8.85;;;3.38;;
56667;SDS011;42542;48.360;10.958;2024-03-17T05:49:45;12.43;;;3.77;;
56667;SDS011;42542;48.360;10.958;2024-03-17T05:52:46;11.55;;;4.03;;
56667;SDS011;42542;48.360;10.958;2024-03-17T05:55:48;11.00;;;3.53;;
56667;SDS011;42542;48.360;10.958;2024-03-17T05:58:48;10.03;;;4.03;;
56667;SDS011;42542;48.360;10.958;2024-03-17T06:01:49;10.18;;;3.60;;
56667;SDS011;42542;48.360;10.958;2024-03-17T06:04:50;13.23;;;3.90;;
56667;SDS011;42542;48.360;10.958;2024-03-17T06:07:52;9.70;;;3.75;;
56667;SDS011;42542;48.360;10.958;2024-03-17T06:10:53;9.13;;;3.60;;
56667;SDS011;42542;48.360;10.958;2024-03-17T06:13:53;10.75;;;3.75;;
56667;SDS011;42542;48.360;10.958;2024-03-17T06:16:54;10.83;;;3.33;;
56667;SDS011;42542;48.360;10.958;2024-03-17T06:19:55;10.00;;;3.63;;
56667;SDS011;42542;48.360;10.958;2024-03-17T06:22:57;9.23;;;3.42;;
56667;SDS011;42542;48.360;10.958;2024-03-17T06:25:59;8.80;;;3.65;;
56667;SDS011;42542;48.360;10.958;2024-03-17T06:29:02;11.15;;;3.97;;
56667;SDS011;42542;48.360;10.958;2024-03-17T06:32:03;10.32;;;3.78;;
56667;SDS011;42542;48.360;10.958;2024-03-17T06:35:04;9.73;;;3.40;;
56667;SDS011;42542;48.360;10.958;2024-03-17T06:38:05;9.43;;;3.30;;
56667;SDS011;42542;48.360;10.958;2024-03-17T06:41:10;9.95;;;3.72;;
56667;SDS011;42542;48.360;10.958;2024-03-17T06:44:12;10.35;;;3.38;;
56667;SDS011;42542;48.360;10.958;2024-03-17T06:47:14;8.55;;;3.38;;
56667;SDS011;42542;48.360;10.958;2024-03-17T06:50:14;8.27;;;3.40;;
56667;SDS011;42542;48.360;10.958;2024-03-17T06:53:15;9.38;;;3.13;;
56667;SDS011;42542;48.360;10.958;2024-03-17T06:56:16;8.43;;;3.07;;
56667;SDS011;42542;48.360;10.958;2024-03-17T06:59:16;8.95;;;3.30;;
56667;SDS011;42542;48.360;10.958;2024-03-17T07:02:18;9.27;;;3.60;;
56667;SDS011;42542;48.360;10.958;2024-03-17T07:05:20;10.18;;;3.95;;
56667;SDS011;42542;48.360;10.958;2024-03-17T07:08:21;9.83;;;3.27;;
56667;SDS011;42542;48.360;10.958;2024-03-17T07:11:22;9.02;;;3.25;;
56667;SDS011;42542;48.360;10.958;2024-03-17T07:14:25;9.30;;;3.78;;
56667;SDS011;42542;48.360;10.958;2024-03-17T07:17:26;9.87;;;3.67;;
56667;SDS011;42542;48.360;10.958;2024-03-17T07:20:28;8.63;;;3.35;;
56667;SDS011;42542;48.360;10.958;2024-03-17T07:23:28;11.25;;;3.72;;
56667;SDS011;42542;48.360;10.958;2024-03-17T07:26:30;11.10;;;3.90;;
56667;SDS011;42542;48.360;10.958;2024-03-17T07:29:31;10.00;;;3.60;;
56667;SDS011;42542;48.360;10.958;2024-03-17T07:32:32;11.17;;;3.90;;
56667;SDS011;42542;48.360;10.958;2024-03-17T07:35:33;10.88;;;3.72;;
56667;SDS011;42542;48.360;10.958;2024-03-17T07:38:35;10.80;;;3.75;;
56667;SDS011;42542;48.360;10.958;2024-03-17T07:41:37;12.52;;;4.18;;
56667;SDS011;42542;48.360;10.958;2024-03-17T07:44:38;9.57;;;3.75;;
56667;SDS011;42542;48.360;10.958;2024-03-17T07:47:38;10.85;;;4.10;;
56667;SDS011;42542;48.360;10.958;2024-03-17T07:50:39;9.83;;;3.93;;
56667;SDS011;42542;48.360;10.958;2024-03-17T07:53:41;10.50;;;3.80;;
56667;SDS011;42542;48.360;10.958;2024-03-17T07:56:43;9.23;;;3.60;;
56667;SDS011;42542;48.360;10.958;2024-03-17T07:59:44;9.02;;;3.28;;
56667;SDS011;42542;48.360;10.958;2024-03-17T08:02:46;10.88;;;3.60;;
56667;SDS011;42542;48.360;10.958;2024-03-17T08:05:49;9.43;;;3.53;;
56667;SDS011;42542;48.360;10.958;2024-03-17T08:08:50;9.45;;;3.33;;
56667;SDS011;42542;48.360;10.958;2024-03-17T08:11:51;10.10;;;3.60;;
56667;SDS011;42542;48.360;10.958;2024-03-17T08:14:53;10.27;;;3.40;;
56667;SDS011;42542;48.360;10.958;2024-03-17T08:17:54;9.77;;;3.10;;
56667;SDS011;42542;48.360;10.958;2024-03-17T08:20:55;11.13;;;3.63;;
56667;SDS011;42542;48.360;10.958;2024-03-17T08:23:56;9.83;;;3.50;;
56667;SDS011;42542;48.360;10.958;2024-03-17T08:27:01;9.48;;;3.15;;
56667;SDS011;42542;48.360;10.958;2024-03-17T08:30:02;11.38;;;3.63;;
56667;SDS011;42542;48.360;10.958;2024-03-17T08:33:03;10.43;;;3.40;;
56667;SDS011;42542;48.360;10.958;2024-03-17T08:36:06;8.93;;;3.40;;
56667;SDS011;42542;48.360;10.958;2024-03-17T08:39:07;8.85;;;3.22;;
56667;SDS011;42542;48.360;10.958;2024-03-17T08:42:11;8.43;;;2.90;;
56667;SDS011;42542;48.360;10.958;2024-03-17T08:45:12;9.05;;;3.00;;
56667;SDS011;42542;48.360;10.958;2024-03-17T08:48:14;7.63;;;2.88;;
56667;SDS011;42542;48.360;10.958;2024-03-17T08:51:15;9.18;;;3.35;;
56667;SDS011;42542;48.360;10.958;2024-03-17T08:54:16;11.20;;;3.53;;
56667;SDS011;42542;48.360;10.958;2024-03-17T08:57:17;9.15;;;3.33;;
56667;SDS011;42542;48.360;10.958;2024-03-17T09:00:18;9.53;;;3.57;;
56667;SDS011;42542;48.360;10.958;2024-03-17T09:03:19;9.15;;;3.30;;
56667;SDS011;42542;48.360;10.958;2024-03-17T09:06:20;10.65;;;3.55;;
56667;SDS011;42542;48.360;10.958;2024-03-17T09:09:23;8.82;;;3.33;;
56667;SDS011;42542;48.360;10.958;2024-03-17T09:12:24;10.52;;;3.25;;
56667;SDS011;42542;48.360;10.958;2024-03-17T09:15:26;8.93;;;3.22;;
56667;SDS011;42542;48.360;10.958;2024-03-17T09:18:27;10.00;;;3.27;;
56667;SDS011;42542;48.360;10.958;2024-03-17T09:21:31;9.90;;;3.40;;
56667;SDS011;42542;48.360;10.958;2024-03-17T09:24:32;8.07;;;3.20;;
56667;SDS011;42542;48.360;10.958;2024-03-17T09:27:34;9.85;;;3.10;;
56667;SDS011;42542;48.360;10.958;2024-03-17T09:30:38;8.23;;;3.10;;
56667;SDS011;42542;48.360;10.958;2024-03-17T09:33:39;7.00;;;2.70;;
56667;SDS011;42542;48.360;10.958;2024-03-17T09:36:40;6.43;;;2.50;;
56667;SDS011;42542;48.360;10.958;2024-03-17T09:39:46;7.35;;;2.75;;
56667;SDS011;42542;48.360;10.958;2024-03-17T09:42:48;6.57;;;2.50;;
56667;SDS011;42542;48.360;10.958;2024-03-17T09:45:50;7.82;;;2.90;;
56667;SDS011;42542;48.360;10.958;2024-03-17T09:48:55;7.15;;;2.38;;
56667;SDS011;42542;48.360;10.958;2024-03-17T09:51:58;5.90;;;1.90;;
56667;SDS011;42542;48.360;10.958;2024-03-17T09:54:59;6.07;;;2.05;;
56667;SDS011;42542;48.360;10.958;2024-03-17T09:58:10;7.35;;;2.10;;
56667;SDS011;42542;48.360;10.958;2024-03-17T10:01:17;6.97;;;2.00;;
56667;SDS011;42542;48.360;10.958;2024-03-17T10:04:31;6.88;;;1.80;;
56667;SDS011;42542;48.360;10.958;2024-03-17T10:07:37;6.97;;;2.30;;
56667;SDS011;42542;48.360;10.958;2024-03-17T10:10:39;7.05;;;2.47;;
56667;SDS011;42542;48.360;10.958;2024-03-17T10:13:40;6.67;;;2.60;;
56667;SDS011;42542;48.360;10.958;2024-03-17T10:16:42;6.80;;;2.50;;
56667;SDS011;42542;48.360;10.958;2024-03-17T10:19:45;6.18;;;2.35;;
56667;SDS011;42542;48.360;10.958;2024-03-17T10:26:12;6.05;;;2.25;;
56667;SDS011;42542;48.360;10.958;2024-03-17T10:32:25;7.93;;;2.40;;
56667;SDS011;42542;48.360;10.958;2024-03-17T10:35:28;7.18;;;2.15;;
56667;SDS011;42542;48.360;10.958;2024-03-17T10:38:33;6.28;;;2.20;;
56667;SDS011;42542;48.360;10.958;2024-03-17T10:41:35;6.63;;;2.43;;
56667;SDS011;42542;48.360;10.958;2024-03-17T10:44:38;7.00;;;2.22;;
56667;SDS011;42542;48.360;10.958;2024-03-17T10:47:42;6.13;;;2.30;;
56667;SDS011;42542;48.360;10.958;2024-03-17T10:50:47;6.17;;;2.20;;
56667;SDS011;42542;48.360;10.958;2024-03-17T10:53:50;6.05;;;2.35;;
56667;SDS011;42542;48.360;10.958;2024-03-17T10:56:56;8.15;;;2.40;;
56667;SDS011;42542;48.360;10.958;2024-03-17T10:59:58;5.75;;;2.10;;
56667;SDS011;42542;48.360;10.958;2024-03-17T11:03:00;5.97;;;2.05;;
56667;SDS011;42542;48.360;10.958;2024-03-17T11:06:01;7.50;;;2.15;;
56667;SDS011;42542;48.360;10.958;2024-03-17T11:09:04;5.93;;;1.83;;
56667;SDS011;42542;48.360;10.958;2024-03-17T11:12:39;6.03;;;2.00;;
56667;SDS011;42542;48.360;10.958;2024-03-17T11:15:44;6.00;;;1.83;;
56667;SDS011;42542;48.360;10.958;2024-03-17T11:18:46;5.93;;;2.10;;
56667;SDS011;42542;48.360;10.958;2024-03-17T11:21:46;6.00;;;1.90;;
56667;SDS011;42542;48.360;10.958;2024-03-17T11:24:47;6.30;;;2.03;;
56667;SDS011;42542;48.360;10.958;2024-03-17T11:27:48;5.75;;;1.90;;
56667;SDS011;42542;48.360;10.958;2024-03-17T11:30:50;5.72;;;1.90;;
56667;SDS011;42542;48.360;10.958;2024-03-17T11:37:41;6.10;;;1.90;;
56667;SDS011;42542;48.360;10.958;2024-03-17T11:40:44;5.82;;;1.85;;
56667;SDS011;42542;48.360;10.958;2024-03-17T11:43:44;4.93;;;1.70;;
56667;SDS011;42542;48.360;10.958;2024-03-17T11:46:45;5.68;;;1.67;;
56667;SDS011;42542;48.360;10.958;2024-03-17T11:49:52;5.95;;;1.77;;
56667;SDS011;42542;48.360;10.958;2024-03-17T11:52:58;5.97;;;2.00;;
56667;SDS011;42542;48.360;10.958;2024-03-17T11:55:59;7.38;;;2.28;;
56667;SDS011;42542;48.360;10.958;2024-03-17T11:59:04;8.05;;;2.20;;
56667;SDS011;42542;48.360;10.958;2024-03-17T12:02:22;7.17;;;2.33;;
56667;SDS011;42542;48.360;10.958;2024-03-17T12:05:26;5.75;;;2.17;;
56667;SDS011;42542;48.360;10.958;2024-03-17T12:08:27;6.65;;;2.10;;
56667;SDS011;42542;48.360;10.958;2024-03-17T12:11:29;9.18;;;3.42;;
56667;SDS011;42542;48.360;10.958;2024-03-17T12:14:30;7.97;;;1.98;;
56667;SDS011;42542;48.360;10.958;2024-03-17T12:17:32;6.90;;;2.83;;
56667;SDS011;42542;48.360;10.958;2024-03-17T12:20:32;11.10;;;4.25;;
56667;SDS011;42542;48.360;10.958;2024-03-17T12:23:34;8.07;;;3.07;;
56667;SDS011;42542;48.360;10.958;2024-03-17T12:26:35;5.45;;;1.90;;
56667;SDS011;42542;48.360;10.958;2024-03-17T12:29:37;9.95;;;2.63;;
56667;SDS011;42542;48.360;10.958;2024-03-17T12:32:40;6.22;;;1.70;;
56667;SDS011;42542;48.360;10.958;2024-03-17T12:35:42;4.80;;;1.50;;
56667;SDS011;42542;48.360;10.958;2024-03-17T12:38:43;6.15;;;1.52;;
56667;SDS011;42542;48.360;10.958;2024-03-17T12:41:45;4.75;;;1.38;;
56667;SDS011;42542;48.360;10.958;2024-03-17T12:45:01;5.20;;;1.40;;
56667;SDS011;42542;48.360;10.958;2024-03-17T12:48:04;5.60;;;1.60;;
56667;SDS011;42542;48.360;10.958;2024-03-17T12:51:14;5.95;;;1.40;;
56667;SDS011;42542;48.360;10.958;2024-03-17T12:54:15;6.68;;;1.77;;
56667;SDS011;42542;48.360;10.958;2024-03-17T12:57:20;8.68;;;1.80;;
56667;SDS011;42542;48.360;10.958;2024-03-17T13:00:40;4.05;;;1.35;;
56667;SDS011;42542;48.360;10.958;2024-03-17T13:03:41;4.32;;;1.20;;
56667;SDS011;42542;48.360;10.958;2024-03-17T13:06:45;5.07;;;1.40;;
56667;SDS011;42542;48.360;10.958;2024-03-17T13:09:45;5.85;;;1.77;;
56667;SDS011;42542;48.360;10.958;2024-03-17T13:12:46;6.80;;;1.70;;
56667;SDS011;42542;48.360;10.958;2024-03-17T13:15:48;4.90;;;1.35;;
56667;SDS011;42542;48.360;10.958;2024-03-17T13:18:49;7.28;;;1.52;;
56667;SDS011;42542;48.360;10.958;2024-03-17T13:21:50;6.90;;;1.60;;
56667;SDS011;42542;48.360;10.958;2024-03-17T13:24:51;4.20;;;1.40;;
56667;SDS011;42542;48.360;10.958;2024-03-17T13:27:52;6.63;;;1.30;;
56667;SDS011;42542;48.360;10.958;2024-03-17T13:30:54;5.70;;;1.50;;
56667;SDS011;42542;48.360;10.958;2024-03-17T13:33:54;5.40;;;1.40;;
56667;SDS011;42542;48.360;10.958;2024-03-17T13:36:56;3.97;;;1.20;;
56667;SDS011;42542;48.360;10.958;2024-03-17T13:39:57;6.05;;;1.23;;
56667;SDS011;42542;48.360;10.958;2024-03-17T13:42:58;9.33;;;1.40;;
56667;SDS011;42542;48.360;10.958;2024-03-17T13:46:01;5.40;;;1.40;;
56667;SDS011;42542;48.360;10.958;2024-03-17T13:49:07;4.28;;;1.30;;
56667;SDS011;42542;48.360;10.958;2024-03-17T13:52:12;4.75;;;1.17;;
56667;SDS011;42542;48.360;10.958;2024-03-17T13:55:17;5.45;;;1.25;;
56667;SDS011;42542;48.360;10.958;2024-03-17T13:58:23;5.82;;;1.52;;
56667;SDS011;42542;48.360;10.958;2024-03-17T14:01:24;6.78;;;1.85;;
56667;SDS011;42542;48.360;10.958;2024-03-17T14:04:25;5.73;;;1.30;;
56667;SDS011;42542;48.360;10.958;2024-03-17T14:07:26;8.65;;;1.60;;
56667;SDS011;42542;48.360;10.958;2024-03-17T14:10:27;7.03;;;1.50;;
56667;SDS011;42542;48.360;10.958;2024-03-17T14:13:27;4.90;;;1.20;;
56667;SDS011;42542;48.360;10.958;2024-03-17T14:16:29;6.97;;;1.50;;
56667;SDS011;42542;48.360;10.958;2024-03-17T14:19:32;5.28;;;1.38;;
56667;SDS011;42542;48.360;10.958;2024-03-17T14:22:32;5.07;;;1.30;;
56667;SDS011;42542;48.360;10.958;2024-03-17T14:25:33;5.23;;;1.30;;
56667;SDS011;42542;48.360;10.958;2024-03-17T14:28:34;5.40;;;1.40;;
56667;SDS011;42542;48.360;10.958;2024-03-17T14:31:37;5.50;;;1.40;;
56667;SDS011;42542;48.360;10.958;2024-03-17T14:34:38;4.20;;;1.17;;
56667;SDS011;42542;48.360;10.958;2024-03-17T14:37:39;5.88;;;1.30;;
56667;SDS011;42542;48.360;10.958;2024-03-17T14:40:41;4.57;;;1.20;;
56667;SDS011;42542;48.360;10.958;2024-03-17T14:43:42;5.10;;;1.40;;
56667;SDS011;42542;48.360;10.958;2024-03-17T14:46:43;6.22;;;1.50;;
56667;SDS011;42542;48.360;10.958;2024-03-17T14:49:44;4.95;;;1.20;;
56667;SDS011;42542;48.360;10.958;2024-03-17T14:52:46;6.18;;;1.70;;
56667;SDS011;42542;48.360;10.958;2024-03-17T14:55:47;6.57;;;1.67;;
56667;SDS011;42542;48.360;10.958;2024-03-17T14:58:48;5.22;;;1.40;;
56667;SDS011;42542;48.360;10.958;2024-03-17T15:01:49;4.78;;;1.30;;
56667;SDS011;42542;48.360;10.958;2024-03-17T15:04:50;5.93;;;1.40;;
56667;SDS011;42542;48.360;10.958;2024-03-17T15:07:53;6.82;;;1.58;;
56667;SDS011;42542;48.360;10.958;2024-03-17T15:10:54;4.90;;;1.48;;
56667;SDS011;42542;48.360;10.958;2024-03-17T15:13:55;4.90;;;1.70;;
56667;SDS011;42542;48.360;10.958;2024-03-17T15:16:56;6.97;;;1.55;;
56667;SDS011;42542;48.360;10.958;2024-03-17T15:19:58;5.93;;;1.67;;
56667;SDS011;42542;48.360;10.958;2024-03-17T15:22:59;6.43;;;1.80;;
56667;SDS011;42542;48.360;10.958;2024-03-17T15:26:05;5.38;;;1.65;;
56667;SDS011;42542;48.360;10.958;2024-03-17T15:29:10;6.03;;;1.90;;
56667;SDS011;42542;48.360;10.958;2024-03-17T15:32:13;6.03;;;1.88;;
56667;SDS011;42542;48.360;10.958;2024-03-17T15:35:13;6.20;;;1.83;;
56667;SDS011;42542;48.360;10.958;2024-03-17T15:38:15;5.88;;;2.08;;
56667;SDS011;42542;48.360;10.958;2024-03-17T15:41:16;6.27;;;2.00;;
56667;SDS011;42542;48.360;10.958;2024-03-17T15:44:17;5.57;;;2.03;;
56667;SDS011;42542;48.360;10.958;2024-03-17T15:47:21;6.20;;;1.70;;
56667;SDS011;42542;48.360;10.958;2024-03-17T15:50:22;7.38;;;1.65;;
56667;SDS011;42542;48.360;10.958;2024-03-17T15:53:24;7.30;;;1.70;;
56667;SDS011;42542;48.360;10.958;2024-03-17T15:56:26;8.15;;;2.00;;
56667;SDS011;42542;48.360;10.958;2024-03-17T15:59:27;7.77;;;1.90;;
56667;SDS011;42542;48.360;10.958;2024-03-17T16:02:28;7.03;;;2.00;;
56667;SDS011;42542;48.360;10.958;2024-03-17T16:05:29;5.60;;;1.70;;
56667;SDS011;42542;48.360;10.958;2024-03-17T16:08:30;8.23;;;2.10;;
56667;SDS011;42542;48.360;10.958;2024-03-17T16:11:31;5.82;;;1.90;;
56667;SDS011;42542;48.360;10.958;2024-03-17T16:14:32;6.40;;;2.10;;
56667;SDS011;42542;48.360;10.958;2024-03-17T16:17:38;6.53;;;2.40;;
56667;SDS011;42542;48.360;10.958;2024-03-17T16:24:10;7.60;;;2.33;;
56667;SDS011;42542;48.360;10.958;2024-03-17T16:27:13;6.97;;;2.28;;
56667;SDS011;42542;48.360;10.958;2024-03-17T16:30:14;6.03;;;2.17;;
56667;SDS011;42542;48.360;10.958;2024-03-17T16:33:15;7.90;;;2.43;;
56667;SDS011;42542;48.360;10.958;2024-03-17T16:36:17;7.63;;;2.50;;
56667;SDS011;42542;48.360;10.958;2024-03-17T16:39:20;9.00;;;3.17;;
56667;SDS011;42542;48.360;10.958;2024-03-17T16:42:22;20.70;;;6.90;;
56667;SDS011;42542;48.360;10.958;2024-03-17T16:45:25;11.32;;;4.15;;
56667;SDS011;42542;48.360;10.958;2024-03-17T16:48:27;6.70;;;2.60;;
56667;SDS011;42542;48.360;10.958;2024-03-17T16:51:28;9.33;;;2.70;;
56667;SDS011;42542;48.360;10.958;2024-03-17T16:54:29;7.80;;;2.50;;
56667;SDS011;42542;48.360;10.958;2024-03-17T16:57:36;7.63;;;2.45;;
56667;SDS011;42542;48.360;10.958;2024-03-17T17:00:37;7.90;;;2.60;;
56667;SDS011;42542;48.360;10.958;2024-03-17T17:03:38;7.88;;;2.38;;
56667;SDS011;42542;48.360;10.958;2024-03-17T17:06:39;7.90;;;2.20;;
56667;SDS011;42542;48.360;10.958;2024-03-17T17:09:40;8.27;;;2.20;;
56667;SDS011;42542;48.360;10.958;2024-03-17T17:12:41;6.30;;;2.20;;
56667;SDS011;42542;48.360;10.958;2024-03-17T17:15:42;7.60;;;2.55;;
56667;SDS011;42542;48.360;10.958;2024-03-17T17:18:47;9.18;;;4.00;;
56667;SDS011;42542;48.360;10.958;2024-03-17T17:21:50;8.70;;;3.65;;
56667;SDS011;42542;48.360;10.958;2024-03-17T17:24:52;12.75;;;5.70;;
56667;SDS011;42542;48.360;10.958;2024-03-17T17:27:54;11.18;;;5.32;;
56667;SDS011;42542;48.360;10.958;2024-03-17T17:30:55;11.20;;;4.70;;
56667;SDS011;42542;48.360;10.958;2024-03-17T17:33:58;10.63;;;3.97;;
56667;SDS011;42542;48.360;10.958;2024-03-17T17:36:59;8.90;;;3.75;;
56667;SDS011;42542;48.360;10.958;2024-03-17T17:40:01;11.02;;;4.30;;
56667;SDS011;42542;48.360;10.958;2024-03-17T17:43:02;14.15;;;4.85;;
56667;SDS011;42542;48.360;10.958;2024-03-17T17:46:03;11.10;;;4.87;;
56667;SDS011;42542;48.360;10.958;2024-03-17T17:49:06;25.30;;;10.13;;
56667;SDS011;42542;48.360;10.958;2024-03-17T17:52:07;19.27;;;7.50;;
56667;SDS011;42542;48.360;10.958;2024-03-17T17:55:07;12.93;;;5.75;;
56667;SDS011;42542;48.360;10.958;2024-03-17T17:58:09;13.40;;;5.45;;
56667;SDS011;42542;48.360;10.958;2024-03-17T18:01:11;15.57;;;6.07;;
56667;SDS011;42542;48.360;10.958;2024-03-17T18:04:17;14.82;;;6.18;;
56667;SDS011;42542;48.360;10.958;2024-03-17T18:07:17;14.98;;;6.60;;
56667;SDS011;42542;48.360;10.958;2024-03-17T18:10:20;13.02;;;5.90;;
56667;SDS011;42542;48.360;10.958;2024-03-17T18:13:21;14.48;;;5.47;;